Glenburnie, Maryland
Current Conditions -  °F | °C
As of 8:54 AM on Sunday 23 Nov 2014 (Local Time) from KBWI Reporting Station
Broken Clouds Broken Clouds  
Wind Chill: 40°   Ceiling: 25000
Heat Index: 40°   Visibility: 10mi
Dew Point: 22°   Wind: 0mph
Humidity: 49%   Direction: NA
Pressure: 30.22"   Gusts: NA
Location:  39.1648°N, 76.6418°W
Report Text: KBWI 231354Z 00000KT 10SM FEW095 SCT180 BKN250 04/M06 A3022 RMK AO2 SLP234 T00441056
Loading
Personal Weather Stations






























Interactive Weather Map New forecast layout! Learn more

10-Day Weather Forecast

Advertisements
Track Severe Weather on mobile